createdAt,value
2019-03-02T00:00:34.896Z,100.00
2019-03-02T00:03:03.452Z,100.00
2019-03-02T00:05:31.842Z,100.00
2019-03-02T00:08:00.458Z,100.00
2019-03-02T00:10:30.440Z,100.00
2019-03-02T00:12:58.962Z,100.00
2019-03-02T00:15:30.746Z,100.00
2019-03-02T00:18:00.035Z,100.00
2019-03-02T00:20:28.744Z,100.00
2019-03-02T00:22:59.027Z,100.00
2019-03-02T00:25:30.763Z,100.00
2019-03-02T00:27:59.314Z,100.00
2019-03-02T00:30:28.293Z,100.00
2019-03-02T00:32:56.959Z,100.00
2019-03-02T00:35:31.604Z,100.00
2019-03-02T00:38:04.923Z,100.00
2019-03-02T00:40:33.906Z,100.00
2019-03-02T00:43:05.224Z,100.00
2019-03-02T00:45:36.727Z,100.00
2019-03-02T00:48:07.550Z,100.00
2019-03-02T00:50:36.567Z,100.00
2019-03-02T00:53:05.584Z,100.00
2019-03-02T00:55:34.243Z,100.00
2019-03-02T00:58:04.196Z,100.00
2019-03-02T01:00:35.886Z,100.00
2019-03-02T01:03:04.890Z,100.00
2019-03-02T01:05:36.337Z,100.00
2019-03-02T01:08:06.195Z,100.00
2019-03-02T01:10:35.344Z,100.00
2019-03-02T01:13:04.355Z,100.00
2019-03-02T01:15:33.352Z,100.00
2019-03-02T01:18:06.584Z,100.00
2019-03-02T01:20:35.981Z,100.00
2019-03-02T01:23:04.679Z,100.00
2019-03-02T01:25:33.794Z,100.00
2019-03-02T01:28:02.376Z,100.00
2019-03-02T01:30:31.382Z,100.00
2019-03-02T01:32:59.842Z,100.00
2019-03-02T01:35:29.144Z,100.00
2019-03-02T01:37:59.429Z,100.00
2019-03-02T01:40:28.355Z,100.00
2019-03-02T01:42:56.795Z,100.00
2019-03-02T01:45:27.824Z,100.00
2019-03-02T01:47:56.970Z,100.00
2019-03-02T01:50:25.531Z,100.00
2019-03-02T01:52:54.142Z,100.00
2019-03-02T01:55:22.687Z,100.00
2019-03-02T01:57:52.303Z,100.00
2019-03-02T02:00:27.911Z,100.00
2019-03-02T02:02:56.673Z,100.00
2019-03-02T02:05:28.723Z,100.00
2019-03-02T02:07:55.663Z,100.00
2019-03-02T02:10:24.089Z,100.00
2019-03-02T02:12:52.548Z,100.00
2019-03-02T02:15:29.328Z,100.00
2019-03-02T02:17:57.329Z,100.00
2019-03-02T02:20:27.224Z,100.00
2019-03-02T02:22:56.082Z,100.00
2019-03-02T02:25:24.734Z,100.00
2019-03-02T02:27:54.839Z,100.00
2019-03-02T02:30:28.565Z,100.00
2019-03-02T02:33:04.014Z,100.00
2019-03-02T02:35:28.950Z,100.00
2019-03-02T02:37:57.566Z,100.00
2019-03-02T02:40:26.286Z,100.00
2019-03-02T02:42:55.028Z,100.00
2019-03-02T02:45:24.113Z,100.00
2019-03-02T02:47:54.394Z,100.00
2019-03-02T02:50:29.358Z,100.00
2019-03-02T02:52:53.993Z,100.00
2019-03-02T02:55:22.700Z,100.00
2019-03-02T02:57:51.312Z,100.00
2019-03-02T03:00:25.119Z,100.00
2019-03-02T03:02:53.563Z,100.00
2019-03-02T03:05:23.878Z,100.00
2019-03-02T03:07:55.436Z,100.00
2019-03-02T03:10:29.850Z,100.00
2019-03-02T03:13:02.040Z,100.00
2019-03-02T03:15:36.712Z,100.00
2019-03-02T03:18:06.893Z,100.00
2019-03-02T03:20:33.970Z,100.00
2019-03-02T03:23:02.690Z,100.00
2019-03-02T03:25:32.878Z,100.00
2019-03-02T03:28:01.731Z,100.00
2019-03-02T03:30:36.068Z,100.00
2019-03-02T03:33:00.884Z,100.00
2019-03-02T03:35:29.723Z,100.00
2019-03-02T03:38:00.041Z,100.00
2019-03-02T03:40:28.700Z,100.00
2019-03-02T03:43:02.552Z,100.00
2019-03-02T03:45:28.839Z,100.00
2019-03-02T03:47:57.803Z,100.00
2019-03-02T03:50:27.950Z,100.00
2019-03-02T03:52:56.317Z,100.00
2019-03-02T03:55:27.514Z,100.00
2019-03-02T03:58:00.451Z,100.00
2019-03-02T04:00:26.719Z,100.00
2019-03-02T04:02:55.931Z,100.00
2019-03-02T04:05:24.741Z,100.00
2019-03-02T04:07:54.502Z,100.00
2019-03-02T04:10:25.719Z,100.00
2019-03-02T04:13:04.178Z,100.00
2019-03-02T04:15:26.103Z,100.00
2019-03-02T04:17:54.633Z,100.00
2019-03-02T04:20:26.189Z,100.00
2019-03-02T04:22:57.220Z,100.00
2019-03-02T04:25:27.675Z,100.00
2019-03-02T04:27:56.672Z,100.00
2019-03-02T04:30:30.598Z,100.00
2019-03-02T04:32:55.667Z,100.00
2019-03-02T04:35:24.202Z,100.00
2019-03-02T04:37:56.640Z,100.00
2019-03-02T04:40:23.371Z,100.00
2019-03-02T04:42:52.935Z,100.00
2019-03-02T04:45:21.385Z,100.00
2019-03-02T04:47:50.343Z,100.00
2019-03-02T04:50:19.452Z,100.00
2019-03-02T04:52:49.929Z,100.00
2019-03-02T04:55:18.910Z,100.00
2019-03-02T04:57:47.270Z,100.00
2019-03-02T05:00:17.096Z,100.00
2019-03-02T05:02:45.453Z,100.00
2019-03-02T05:05:13.907Z,100.00
2019-03-02T05:07:42.331Z,100.00
2019-03-02T05:10:11.869Z,100.00
2019-03-02T05:12:40.284Z,100.00
2019-03-02T05:15:11.916Z,100.00
2019-03-02T05:17:42.921Z,100.00
2019-03-02T05:20:11.830Z,100.00
2019-03-02T05:22:40.876Z,100.00
2019-03-02T05:25:15.439Z,100.00
2019-03-02T05:27:43.119Z,100.00
2019-03-02T05:30:13.317Z,100.00
2019-03-02T05:32:41.773Z,100.00
2019-03-02T05:35:11.907Z,100.00
2019-03-02T05:37:41.548Z,100.00
2019-03-02T05:40:11.420Z,100.00
2019-03-02T05:42:39.881Z,100.00
2019-03-02T05:45:11.200Z,100.00
2019-03-02T05:47:39.856Z,100.00
2019-03-02T05:50:11.230Z,100.00
2019-03-02T05:52:39.690Z,100.00
2019-03-02T05:55:09.096Z,100.00
2019-03-02T05:57:40.489Z,100.00
2019-03-02T06:00:11.424Z,100.00
2019-03-02T06:02:40.036Z,100.00
2019-03-02T06:05:08.694Z,100.00
2019-03-02T06:07:37.153Z,100.00
2019-03-02T06:10:09.067Z,100.00
2019-03-02T06:12:37.482Z,100.00
2019-03-02T06:15:13.511Z,100.00
2019-03-02T06:17:41.972Z,100.00
2019-03-02T06:20:11.678Z,100.00
2019-03-02T06:22:40.616Z,100.00
2019-03-02T06:25:20.554Z,100.00
2019-03-02T06:27:47.296Z,100.00
2019-03-02T06:30:21.291Z,100.00
2019-03-02T06:32:49.684Z,100.00
2019-03-02T06:35:18.185Z,100.00
2019-03-02T06:37:46.639Z,100.00
2019-03-02T06:40:16.215Z,100.00
2019-03-02T06:42:45.979Z,100.00
2019-03-02T06:45:16.395Z,100.00
2019-03-02T06:47:44.991Z,100.00
2019-03-02T06:50:17.915Z,100.00
2019-03-02T06:52:46.373Z,100.00
2019-03-02T06:55:15.773Z,100.00
2019-03-02T06:57:46.166Z,100.00
2019-03-02T07:00:20.079Z,100.00
2019-03-02T07:02:48.624Z,100.00
2019-03-02T07:05:17.087Z,100.00
2019-03-02T07:07:45.582Z,100.00
2019-03-02T07:10:21.728Z,100.00
2019-03-02T07:12:49.081Z,100.00
2019-03-02T07:15:17.532Z,100.00
2019-03-02T07:18:06.224Z,100.00
2019-03-02T07:20:37.944Z,100.00
2019-03-02T07:23:06.382Z,100.00
2019-03-02T07:25:37.086Z,100.00
2019-03-02T07:28:06.003Z,100.00
2019-03-02T07:30:35.093Z,100.00
2019-03-02T07:33:03.664Z,100.00
2019-03-02T07:35:32.124Z,100.00
2019-03-02T07:38:00.542Z,100.00
2019-03-02T07:40:28.929Z,100.00
2019-03-02T07:42:57.359Z,100.00
2019-03-02T07:45:27.297Z,100.00
2019-03-02T07:48:00.033Z,100.00
2019-03-02T07:50:29.641Z,100.00
2019-03-02T07:52:58.488Z,100.00
2019-03-02T07:55:27.037Z,100.00
2019-03-02T07:57:55.454Z,100.00
2019-03-02T08:00:24.004Z,100.00
2019-03-02T08:02:52.422Z,100.00
2019-03-02T08:05:21.059Z,100.00
2019-03-02T08:07:52.491Z,100.00
2019-03-02T08:10:21.124Z,100.00
2019-03-02T08:12:49.477Z,100.00
2019-03-02T08:15:25.666Z,100.00
2019-03-02T08:17:54.341Z,100.00
2019-03-02T08:20:24.441Z,100.00
2019-03-02T08:22:53.227Z,100.00
2019-03-02T08:25:21.693Z,100.00
2019-03-02T08:27:51.426Z,100.00
2019-03-02T08:30:22.816Z,100.00
2019-03-02T08:32:54.050Z,100.00
2019-03-02T08:35:22.602Z,100.00
2019-03-02T08:37:51.478Z,100.00
2019-03-02T08:40:23.221Z,100.00
2019-03-02T08:42:52.416Z,100.00
2019-03-02T08:45:21.469Z,100.00
2019-03-02T08:47:51.390Z,100.00
2019-03-02T08:50:20.825Z,100.00
2019-03-02T08:52:50.084Z,100.00
2019-03-02T08:55:22.759Z,100.00
2019-03-02T08:57:53.944Z,100.00
2019-03-02T09:00:26.880Z,100.00
2019-03-02T09:02:59.065Z,100.00
2019-03-02T09:05:42.797Z,100.00
2019-03-02T09:07:56.123Z,100.00
2019-03-02T09:10:24.543Z,100.00
2019-03-02T09:12:57.985Z,100.00
2019-03-02T09:15:30.506Z,100.00
2019-03-02T09:18:01.010Z,100.00
2019-03-02T09:20:34.507Z,100.00
2019-03-02T09:23:01.332Z,100.00
2019-03-02T09:25:32.111Z,100.00
2019-03-02T09:28:01.280Z,100.00
2019-03-02T09:30:29.729Z,100.00
2019-03-02T09:32:58.355Z,100.00
2019-03-02T09:35:26.782Z,100.00
2019-03-02T09:37:55.245Z,100.00
2019-03-02T09:40:25.069Z,100.00
2019-03-02T09:42:53.710Z,100.00
2019-03-02T09:45:22.187Z,100.00
2019-03-02T09:47:52.291Z,100.00
2019-03-02T09:50:24.618Z,100.00
2019-03-02T09:52:55.864Z,100.00
2019-03-02T09:55:24.134Z,100.00
2019-03-02T09:57:53.309Z,100.00
2019-03-02T10:00:26.081Z,100.00
2019-03-02T10:02:54.857Z,100.00
2019-03-02T10:05:23.418Z,100.00
2019-03-02T10:07:51.777Z,100.00
2019-03-02T10:10:20.310Z,100.00
2019-03-02T10:12:51.621Z,100.00
2019-03-02T10:15:26.487Z,100.00
2019-03-02T10:17:55.340Z,100.00
2019-03-02T10:20:24.063Z,100.00
2019-03-02T10:22:53.576Z,100.00
2019-03-02T10:25:26.487Z,100.00
2019-03-02T10:27:53.827Z,100.00
2019-03-02T10:30:26.424Z,100.00
2019-03-02T10:32:57.335Z,100.00
2019-03-02T10:35:26.183Z,100.00
2019-03-02T10:37:54.700Z,100.00
2019-03-02T10:40:23.684Z,100.00
2019-03-02T10:43:02.860Z,98.00
2019-03-02T10:45:33.636Z,94.77
2019-03-02T10:48:02.085Z,97.41
2019-03-02T10:50:30.647Z,95.95
2019-03-02T10:52:59.275Z,99.97
2019-03-02T10:55:27.998Z,100.00
2019-03-02T10:57:59.115Z,95.66
2019-03-02T11:00:31.673Z,95.56
2019-03-02T11:03:06.645Z,91.38
2019-03-02T11:05:43.462Z,89.73
2019-03-02T11:08:27.446Z,88.35
2019-03-02T11:11:09.498Z,91.97
2019-03-02T11:13:55.343Z,89.90
2019-03-02T11:16:28.125Z,86.73
2019-03-02T11:18:58.853Z,85.62
2019-03-02T11:21:38.889Z,86.14
2019-03-02T11:24:16.226Z,87.65
2019-03-02T11:26:56.488Z,84.79
2019-03-02T11:29:50.761Z,87.19
2019-03-02T11:32:21.794Z,91.42
2019-03-02T11:35:00.553Z,88.29
2019-03-02T11:37:33.775Z,87.50
2019-03-02T11:40:03.818Z,86.34
2019-03-02T11:42:36.609Z,88.26
2019-03-02T11:45:09.048Z,88.31
2019-03-02T11:47:39.390Z,85.64
2019-03-02T11:50:14.377Z,88.82
2019-03-02T11:52:47.317Z,85.21
2019-03-02T11:55:18.166Z,86.56
2019-03-02T11:57:48.455Z,81.84
2019-03-02T12:00:24.644Z,83.51
2019-03-02T12:02:58.380Z,81.63
2019-03-02T12:05:32.752Z,83.64
2019-03-02T12:08:21.966Z,82.83
2019-03-02T12:10:53.957Z,85.51
2019-03-02T12:13:31.197Z,80.57
2019-03-02T12:16:05.814Z,83.75
2019-03-02T12:18:38.383Z,81.98
2019-03-02T12:21:26.991Z,81.33
2019-03-02T12:23:57.248Z,82.31
2019-03-02T12:26:36.460Z,80.96
2019-03-02T12:29:15.321Z,81.82
2019-03-02T12:31:55.167Z,81.97
2019-03-02T12:34:31.004Z,82.46
2019-03-02T12:37:07.992Z,81.87
2019-03-02T12:39:41.501Z,83.99
2019-03-02T12:42:30.410Z,82.94
2019-03-02T12:45:17.788Z,84.97
2019-03-02T12:47:53.948Z,85.46
2019-03-02T12:50:30.017Z,86.97
2019-03-02T12:53:00.914Z,85.25
2019-03-02T12:55:34.562Z,89.35
2019-03-02T12:58:08.084Z,86.85
2019-03-02T13:00:38.960Z,86.69
2019-03-02T13:03:12.079Z,91.07
2019-03-02T13:05:42.247Z,88.15
2019-03-02T13:08:15.836Z,87.60
2019-03-02T13:10:49.338Z,88.33
2019-03-02T13:13:26.328Z,89.77
2019-03-02T13:16:02.838Z,88.41
2019-03-02T13:18:35.605Z,87.35
2019-03-02T13:21:07.620Z,88.68
2019-03-02T13:23:42.715Z,88.44
2019-03-02T13:26:21.424Z,89.36
2019-03-02T13:29:00.876Z,88.48
2019-03-02T13:31:31.067Z,88.43
2019-03-02T13:34:11.668Z,89.80
2019-03-02T13:36:44.030Z,91.47
2019-03-02T13:39:15.400Z,94.05
2019-03-02T13:41:53.461Z,96.17
2019-03-02T13:44:30.218Z,96.64
2019-03-02T13:47:07.145Z,95.58
2019-03-02T13:49:51.285Z,98.18
2019-03-02T13:52:30.425Z,97.88
2019-03-02T13:55:09.905Z,98.47
2019-03-02T13:57:41.627Z,96.68
2019-03-02T14:00:13.904Z,98.27
2019-03-02T14:03:02.851Z,96.79
2019-03-02T14:05:52.326Z,100.00
2019-03-02T14:08:39.717Z,100.00
2019-03-02T14:11:14.288Z,100.00
2019-03-02T14:13:47.231Z,100.00
2019-03-02T14:16:18.904Z,100.00
2019-03-02T14:18:51.293Z,100.00
2019-03-02T14:21:30.111Z,100.00
2019-03-02T14:24:10.298Z,100.00
2019-03-02T14:26:45.395Z,100.00
2019-03-02T14:29:16.422Z,100.00
2019-03-02T14:31:46.807Z,100.00
2019-03-02T14:34:17.405Z,100.00
2019-03-02T14:36:47.549Z,100.00
2019-03-02T14:39:34.531Z,100.00
2019-03-02T14:42:21.246Z,100.00
2019-03-02T14:44:57.617Z,100.00
2019-03-02T14:47:33.108Z,100.00
2019-03-02T14:50:19.390Z,100.00
2019-03-02T14:52:53.171Z,100.00
2019-03-02T14:55:38.334Z,100.00
2019-03-02T14:58:25.132Z,100.00
2019-03-02T15:01:12.397Z,100.00
2019-03-02T15:03:45.197Z,100.00
2019-03-02T15:06:31.256Z,100.00
2019-03-02T15:09:03.747Z,100.00
2019-03-02T15:11:49.802Z,100.00
2019-03-02T15:14:22.634Z,100.00
2019-03-02T15:16:52.623Z,100.00
2019-03-02T15:19:41.336Z,100.00
2019-03-02T15:22:10.550Z,100.00
2019-03-02T15:24:58.799Z,100.00
2019-03-02T15:27:34.594Z,100.00
2019-03-02T15:30:23.249Z,100.00
2019-03-02T15:32:53.212Z,100.00
2019-03-02T15:35:41.918Z,100.00
2019-03-02T15:38:11.987Z,100.00
2019-03-02T15:40:43.797Z,100.00
2019-03-02T15:43:16.604Z,100.00
2019-03-02T15:45:55.412Z,100.00
2019-03-02T15:48:28.681Z,100.00
2019-03-02T15:51:01.513Z,100.00
2019-03-02T15:53:40.960Z,100.00
2019-03-02T15:56:11.480Z,100.00
2019-03-02T15:58:41.917Z,100.00
2019-03-02T16:01:27.208Z,100.00
2019-03-02T16:04:04.984Z,100.00
2019-03-02T16:06:52.308Z,100.00
2019-03-02T16:09:28.933Z,100.00
2019-03-02T16:12:08.310Z,100.00
2019-03-02T16:14:44.712Z,100.00
2019-03-02T16:17:30.277Z,100.00
2019-03-02T16:20:18.330Z,100.00
2019-03-02T16:22:50.310Z,100.00
2019-03-02T16:25:22.283Z,100.00
2019-03-02T16:27:55.691Z,100.00
2019-03-02T16:30:32.859Z,100.00
2019-03-02T16:33:05.876Z,100.00
2019-03-02T16:35:52.384Z,100.00
2019-03-02T16:38:23.362Z,100.00
2019-03-02T16:40:58.340Z,100.00
2019-03-02T16:43:28.728Z,100.00
2019-03-02T16:46:11.040Z,100.00
2019-03-02T16:48:43.820Z,100.00
2019-03-02T16:51:14.081Z,100.00
2019-03-02T16:53:50.043Z,100.00
2019-03-02T16:56:35.426Z,100.00
2019-03-02T16:59:28.163Z,100.00
2019-03-02T17:01:57.817Z,100.00
2019-03-02T17:04:29.257Z,100.00
2019-03-02T17:07:08.347Z,100.00
2019-03-02T17:09:43.849Z,100.00
2019-03-02T17:12:15.841Z,100.00
2019-03-02T17:14:45.955Z,100.00
2019-03-02T17:17:25.127Z,100.00
2019-03-02T17:20:11.283Z,100.00
2019-03-02T17:22:59.893Z,100.00
2019-03-02T17:25:35.859Z,100.00
2019-03-02T17:28:22.330Z,100.00
2019-03-02T17:30:52.392Z,100.00
2019-03-02T17:33:31.195Z,100.00
2019-03-02T17:36:15.117Z,100.00
2019-03-02T17:39:00.298Z,100.00
2019-03-02T17:41:32.874Z,100.00
2019-03-02T17:44:12.116Z,100.00
2019-03-02T17:46:50.660Z,100.00
2019-03-02T17:49:35.697Z,100.00
2019-03-02T17:52:09.382Z,100.00
2019-03-02T17:54:55.984Z,100.00
2019-03-02T17:57:31.943Z,100.00
2019-03-02T18:00:19.813Z,100.00
2019-03-02T18:03:00.415Z,100.00
2019-03-02T18:05:36.167Z,100.00
2019-03-02T18:08:15.229Z,100.00
2019-03-02T18:10:45.330Z,100.00
2019-03-02T18:13:15.327Z,100.00
2019-03-02T18:15:45.363Z,100.00
2019-03-02T18:18:13.710Z,100.00
2019-03-02T18:20:42.158Z,100.00
2019-03-02T18:23:10.923Z,100.00
2019-03-02T18:25:39.451Z,100.00
2019-03-02T18:28:10.144Z,100.00
2019-03-02T18:30:38.973Z,100.00
2019-03-02T18:33:11.217Z,100.00
2019-03-02T18:35:39.902Z,100.00
2019-03-02T18:38:09.099Z,100.00
2019-03-02T18:40:39.116Z,100.00
2019-03-02T18:43:09.608Z,100.00
2019-03-02T18:45:39.662Z,100.00
2019-03-02T18:48:10.029Z,100.00
2019-03-02T18:50:40.130Z,100.00
2019-03-02T18:53:08.932Z,100.00
2019-03-02T18:55:37.491Z,100.00
2019-03-02T18:58:06.565Z,100.00
2019-03-02T19:00:36.740Z,100.00
2019-03-02T19:03:06.194Z,100.00
2019-03-02T19:05:34.645Z,100.00
2019-03-02T19:08:03.068Z,100.00
2019-03-02T19:10:31.514Z,100.00
2019-03-02T19:12:59.943Z,100.00
2019-03-02T19:15:28.395Z,100.00
2019-03-02T19:17:56.825Z,100.00
2019-03-02T19:20:25.883Z,100.00
2019-03-02T19:22:54.268Z,100.00
2019-03-02T19:25:22.693Z,100.00
2019-03-02T19:27:51.072Z,100.00
2019-03-02T19:30:20.763Z,100.00
2019-03-02T19:32:49.209Z,100.00
2019-03-02T19:35:17.630Z,100.00
2019-03-02T19:37:46.088Z,100.00
2019-03-02T19:40:23.437Z,100.00
2019-03-02T19:42:51.904Z,100.00
2019-03-02T19:45:20.332Z,100.00
2019-03-02T19:47:48.728Z,100.00
2019-03-02T19:50:21.383Z,100.00
2019-03-02T19:52:49.929Z,100.00
2019-03-02T19:55:18.525Z,100.00
2019-03-02T19:57:47.353Z,100.00
2019-03-02T20:00:31.526Z,100.00
2019-03-02T20:03:00.004Z,100.00
2019-03-02T20:05:28.436Z,100.00
2019-03-02T20:07:56.826Z,100.00
2019-03-02T20:10:27.584Z,100.00
2019-03-02T20:12:57.520Z,100.00
2019-03-02T20:15:28.111Z,100.00
2019-03-02T20:17:58.356Z,100.00
2019-03-02T20:20:28.681Z,100.00
2019-03-02T20:22:58.107Z,100.00
2019-03-02T20:25:27.938Z,100.00
2019-03-02T20:27:57.017Z,100.00
2019-03-02T20:30:27.585Z,100.00
2019-03-02T20:32:56.482Z,100.00
2019-03-02T20:35:26.963Z,100.00
2019-03-02T20:37:56.063Z,100.00
2019-03-02T20:40:28.882Z,100.00
2019-03-02T20:42:57.932Z,100.00
2019-03-02T20:45:26.518Z,100.00
2019-03-02T20:47:55.154Z,100.00
2019-03-02T20:50:24.241Z,100.00
2019-03-02T20:52:52.707Z,100.00
2019-03-02T20:55:21.059Z,100.00
2019-03-02T20:57:50.424Z,100.00
2019-03-02T21:00:24.934Z,100.00
2019-03-02T21:02:54.667Z,100.00
2019-03-02T21:05:24.149Z,100.00
2019-03-02T21:07:53.217Z,100.00
2019-03-02T21:10:27.439Z,100.00
2019-03-02T21:12:55.999Z,100.00
2019-03-02T21:15:28.933Z,100.00
2019-03-02T21:17:57.359Z,100.00
2019-03-02T21:20:26.693Z,100.00
2019-03-02T21:22:55.721Z,100.00
2019-03-02T21:25:24.752Z,100.00
2019-03-02T21:27:53.375Z,100.00
2019-03-02T21:30:22.172Z,100.00
2019-03-02T21:32:51.093Z,100.00
2019-03-02T21:35:19.951Z,100.00
2019-03-02T21:37:49.206Z,100.00
2019-03-02T21:40:23.041Z,100.00
2019-03-02T21:42:57.519Z,100.00
2019-03-02T21:45:30.045Z,100.00
2019-03-02T21:47:58.481Z,100.00
2019-03-02T21:50:38.250Z,100.00
2019-03-02T21:53:07.286Z,100.00
2019-03-02T21:55:36.111Z,100.00
2019-03-02T21:58:09.192Z,100.00
2019-03-02T22:00:38.475Z,100.00
2019-03-02T22:03:07.321Z,100.00
2019-03-02T22:05:36.081Z,100.00
2019-03-02T22:08:05.379Z,100.00
2019-03-02T22:10:54.105Z,100.00
2019-03-02T22:13:22.772Z,100.00
2019-03-02T22:15:51.696Z,100.00
2019-03-02T22:18:20.187Z,100.00
2019-03-02T22:20:51.433Z,100.00
2019-03-02T22:23:20.277Z,100.00
2019-03-02T22:25:49.057Z,100.00
2019-03-02T22:28:17.662Z,100.00
2019-03-02T22:30:46.225Z,100.00
2019-03-02T22:33:15.015Z,100.00
2019-03-02T22:35:43.879Z,100.00
2019-03-02T22:38:12.732Z,100.00
2019-03-02T22:40:42.956Z,100.00
2019-03-02T22:43:11.782Z,100.00
2019-03-02T22:45:40.320Z,100.00
2019-03-02T22:48:08.674Z,100.00
2019-03-02T22:50:37.057Z,100.00
2019-03-02T22:53:05.473Z,100.00
2019-03-02T22:55:33.902Z,100.00
2019-03-02T22:58:02.657Z,100.00
2019-03-02T23:00:46.177Z,100.00
2019-03-02T23:03:13.504Z,100.00
2019-03-02T23:05:41.895Z,100.00
2019-03-02T23:08:10.308Z,100.00
2019-03-02T23:10:38.665Z,100.00
2019-03-02T23:13:07.057Z,100.00
2019-03-02T23:15:35.474Z,100.00
2019-03-02T23:18:03.950Z,100.00
2019-03-02T23:20:32.298Z,100.00
2019-03-02T23:23:00.693Z,100.00
2019-03-02T23:25:29.132Z,100.00
2019-03-02T23:27:57.596Z,100.00
2019-03-02T23:30:26.583Z,100.00
2019-03-02T23:32:55.033Z,100.00
2019-03-02T23:35:23.953Z,100.00
2019-03-02T23:37:52.324Z,100.00
2019-03-02T23:40:23.370Z,100.00
2019-03-02T23:42:51.863Z,100.00
2019-03-02T23:45:20.428Z,100.00
2019-03-02T23:47:48.881Z,100.00
2019-03-02T23:50:17.299Z,100.00
2019-03-02T23:52:46.034Z,100.00
2019-03-02T23:55:15.425Z,100.00
2019-03-02T23:57:43.964Z,100.00
